createdAt,value
2018-02-25T00:00:04.934Z,54.26
2018-02-25T00:01:58.226Z,54.07
2018-02-25T00:02:58.092Z,54.07
2018-02-25T00:04:51.394Z,53.78
2018-02-25T00:05:51.284Z,53.97
2018-02-25T00:07:44.484Z,53.69
2018-02-25T00:08:44.426Z,54.23
2018-02-25T00:10:37.718Z,54.80
2018-02-25T00:11:37.595Z,54.89
2018-02-25T00:13:30.821Z,54.80
2018-02-25T00:14:30.792Z,54.14
2018-02-25T00:16:24.044Z,53.95
2018-02-25T00:17:23.920Z,54.42
2018-02-25T00:19:17.172Z,54.70
2018-02-25T00:20:17.095Z,54.80
2018-02-25T00:22:10.356Z,54.51
2018-02-25T00:23:10.253Z,54.61
2018-02-25T00:25:03.530Z,54.80
2018-02-25T00:26:03.455Z,55.18
2018-02-25T00:27:56.686Z,55.18
2018-02-25T00:28:56.591Z,55.65
2018-02-25T00:30:49.840Z,55.27
2018-02-25T00:31:49.787Z,54.89
2018-02-25T00:33:44.106Z,54.61
2018-02-25T00:34:43.910Z,54.61
2018-02-25T00:36:37.167Z,54.33
2018-02-25T00:37:37.106Z,54.61
2018-02-25T00:39:30.340Z,54.89
2018-02-25T00:40:30.247Z,54.80
2018-02-25T00:42:23.505Z,55.36
2018-02-25T00:43:23.401Z,55.55
2018-02-25T00:45:16.684Z,55.93
2018-02-25T00:46:16.589Z,55.74
2018-02-25T00:48:09.846Z,56.49
2018-02-25T00:49:09.759Z,56.12
2018-02-25T00:51:03.032Z,55.93
2018-02-25T00:52:02.897Z,56.30
2018-02-25T00:53:56.151Z,56.21
2018-02-25T00:54:56.064Z,56.21
2018-02-25T00:56:49.353Z,56.12
2018-02-25T00:57:49.234Z,56.02
2018-02-25T00:59:42.464Z,56.12
2018-02-25T01:00:42.432Z,56.30
2018-02-25T01:02:35.673Z,56.77
2018-02-25T01:03:35.581Z,56.87
2018-02-25T01:05:28.815Z,56.59
2018-02-25T01:06:28.718Z,56.59
2018-02-25T01:08:21.984Z,56.02
2018-02-25T01:09:21.888Z,56.59
2018-02-25T01:11:15.134Z,56.68
2018-02-25T01:12:15.054Z,56.96
2018-02-25T01:14:08.324Z,56.49
2018-02-25T01:15:08.207Z,56.30
2018-02-25T01:17:01.464Z,56.40
2018-02-25T01:18:01.394Z,55.83
2018-02-25T01:19:54.638Z,56.12
2018-02-25T01:20:54.532Z,56.68
2018-02-25T01:22:47.915Z,56.40
2018-02-25T01:23:47.701Z,56.49
2018-02-25T01:25:40.991Z,56.77
2018-02-25T01:26:40.879Z,57.06
2018-02-25T01:28:34.141Z,56.49
2018-02-25T01:29:34.026Z,56.77
2018-02-25T01:31:27.295Z,57.06
2018-02-25T01:32:27.233Z,56.87
2018-02-25T01:34:20.484Z,57.72
2018-02-25T01:35:20.361Z,57.53
2018-02-25T01:37:13.633Z,57.91
2018-02-25T01:38:13.524Z,58.29
2018-02-25T01:40:06.758Z,58.00
2018-02-25T01:41:06.679Z,58.10
2018-02-25T01:42:59.948Z,58.38
2018-02-25T01:43:59.841Z,58.29
2018-02-25T01:45:53.079Z,58.38
2018-02-25T01:46:53.020Z,58.19
2018-02-25T01:48:46.270Z,58.38
2018-02-25T01:49:46.175Z,58.10
2018-02-25T01:51:39.408Z,58.38
2018-02-25T01:52:39.331Z,59.14
2018-02-25T01:54:32.606Z,59.61
2018-02-25T01:55:32.502Z,59.61
2018-02-25T01:57:25.769Z,58.76
2018-02-25T01:58:25.662Z,58.47
2018-02-25T02:00:18.944Z,58.29
2018-02-25T02:01:18.828Z,58.10
2018-02-25T02:03:12.068Z,58.00
2018-02-25T02:04:11.984Z,58.19
2018-02-25T02:06:05.268Z,58.85
2018-02-25T02:07:05.162Z,59.14
2018-02-25T02:08:58.389Z,58.95
2018-02-25T02:09:58.326Z,59.42
2018-02-25T02:11:51.587Z,59.33
2018-02-25T02:12:51.479Z,59.61
2018-02-25T02:14:44.723Z,58.85
2018-02-25T02:15:44.641Z,58.76
2018-02-25T02:17:37.895Z,58.95
2018-02-25T02:18:37.805Z,59.30
2018-02-25T02:20:31.044Z,59.33
2018-02-25T02:21:30.960Z,59.58
2018-02-25T02:23:24.221Z,59.51
2018-02-25T02:24:24.134Z,59.51
2018-02-25T02:26:17.351Z,59.99
2018-02-25T02:27:17.284Z,60.14
2018-02-25T02:29:10.540Z,60.33
2018-02-25T02:30:10.440Z,60.52
2018-02-25T02:32:03.671Z,60.42
2018-02-25T02:33:03.611Z,60.52
2018-02-25T02:34:56.864Z,60.05
2018-02-25T02:35:56.764Z,60.42
2018-02-25T02:37:50.020Z,60.52
2018-02-25T02:38:49.948Z,60.42
2018-02-25T02:40:43.210Z,60.24
2018-02-25T02:41:43.116Z,59.95
2018-02-25T02:43:36.331Z,60.14
2018-02-25T02:44:36.280Z,59.86
2018-02-25T02:46:29.550Z,60.14
2018-02-25T02:47:29.427Z,60.05
2018-02-25T02:49:22.651Z,60.24
2018-02-25T02:50:22.592Z,60.42
2018-02-25T02:52:15.859Z,60.80
2018-02-25T02:53:15.760Z,61.18
2018-02-25T02:55:08.993Z,61.36
2018-02-25T02:56:08.910Z,60.71
2018-02-25T02:58:02.165Z,60.05
2018-02-25T02:59:02.059Z,60.42
2018-02-25T03:00:55.298Z,60.52
2018-02-25T03:01:55.237Z,61.08
2018-02-25T03:03:48.487Z,60.99
2018-02-25T03:04:48.383Z,61.18
2018-02-25T03:06:41.649Z,61.55
2018-02-25T03:07:41.558Z,61.74
2018-02-25T03:09:34.840Z,62.31
2018-02-25T03:10:34.729Z,62.40
2018-02-25T03:12:27.966Z,62.21
2018-02-25T03:13:27.893Z,62.12
2018-02-25T03:15:21.172Z,61.65
2018-02-25T03:16:21.064Z,61.65
2018-02-25T03:18:14.277Z,61.65
2018-02-25T03:19:14.202Z,61.65
2018-02-25T03:21:07.475Z,61.74
2018-02-25T03:22:07.362Z,61.93
2018-02-25T03:24:00.612Z,61.84
2018-02-25T03:25:00.524Z,62.50
2018-02-25T03:26:53.789Z,61.65
2018-02-25T03:27:53.682Z,62.12
2018-02-25T03:29:46.921Z,61.65
2018-02-25T03:30:46.852Z,62.12
2018-02-25T03:32:40.107Z,61.74
2018-02-25T03:33:40.004Z,61.27
2018-02-25T03:35:33.236Z,62.03
2018-02-25T03:36:33.175Z,62.12
2018-02-25T03:38:26.433Z,61.46
2018-02-25T03:39:26.320Z,61.55
2018-02-25T03:41:19.564Z,62.31
2018-02-25T03:42:19.485Z,62.12
2018-02-25T03:44:12.761Z,62.12
2018-02-25T03:45:12.658Z,62.12
2018-02-25T03:47:05.891Z,62.31
2018-02-25T03:48:05.809Z,62.31
2018-02-25T03:49:59.076Z,62.03
2018-02-25T03:50:58.971Z,61.36
2018-02-25T03:52:52.213Z,60.99
2018-02-25T03:53:52.133Z,60.80
2018-02-25T03:55:45.397Z,60.80
2018-02-25T03:56:45.294Z,61.36
2018-02-25T03:58:38.571Z,61.74
2018-02-25T03:59:38.490Z,61.74
2018-02-25T04:01:31.808Z,62.31
2018-02-25T04:02:31.651Z,62.50
2018-02-25T04:04:24.903Z,62.31
2018-02-25T04:05:24.816Z,62.50
2018-02-25T04:07:18.074Z,62.31
2018-02-25T04:08:17.994Z,62.03
2018-02-25T04:10:11.204Z,61.55
2018-02-25T04:11:11.131Z,61.65
2018-02-25T04:13:04.411Z,61.74
2018-02-25T04:14:04.288Z,62.31
2018-02-25T04:15:57.523Z,62.31
2018-02-25T04:16:57.449Z,62.97
2018-02-25T04:18:50.715Z,62.50
2018-02-25T04:19:50.632Z,62.88
2018-02-25T04:21:43.846Z,62.21
2018-02-25T04:22:43.770Z,62.31
2018-02-25T04:24:37.038Z,61.74
2018-02-25T04:25:36.931Z,62.12
2018-02-25T04:27:30.171Z,62.21
2018-02-25T04:28:30.098Z,62.03
2018-02-25T04:30:23.354Z,62.21
2018-02-25T04:31:23.254Z,62.03
2018-02-25T04:33:16.500Z,61.08
2018-02-25T04:34:16.418Z,60.80
2018-02-25T04:36:09.713Z,60.61
2018-02-25T04:37:09.594Z,60.61
2018-02-25T04:39:02.812Z,60.05
2018-02-25T04:40:02.734Z,60.52
2018-02-25T04:41:56.019Z,60.99
2018-02-25T04:42:55.898Z,61.27
2018-02-25T04:44:49.135Z,61.08
2018-02-25T04:45:49.062Z,61.08
2018-02-25T04:47:42.342Z,60.42
2018-02-25T04:48:42.223Z,60.89
2018-02-25T04:50:35.489Z,60.42
2018-02-25T04:51:35.400Z,60.52
2018-02-25T04:53:28.664Z,61.18
2018-02-25T04:54:28.565Z,61.27
2018-02-25T04:56:21.797Z,61.18
2018-02-25T04:57:21.715Z,60.80
2018-02-25T04:59:14.978Z,61.08
2018-02-25T05:00:14.875Z,61.65
2018-02-25T05:02:08.126Z,61.74
2018-02-25T05:03:08.036Z,61.65
2018-02-25T05:05:01.299Z,60.71
2018-02-25T05:06:01.194Z,60.42
2018-02-25T05:07:54.428Z,60.42
2018-02-25T05:08:54.355Z,60.42
2018-02-25T05:10:47.629Z,60.42
2018-02-25T05:11:47.533Z,61.08
2018-02-25T05:13:40.800Z,60.80
2018-02-25T05:14:40.674Z,60.99
2018-02-25T05:16:33.949Z,61.93
2018-02-25T05:17:33.844Z,61.18
2018-02-25T05:19:27.068Z,60.99
2018-02-25T05:20:26.993Z,60.52
2018-02-25T05:22:20.272Z,60.80
2018-02-25T05:23:20.154Z,60.89
2018-02-25T05:25:13.395Z,60.80
2018-02-25T05:26:13.307Z,60.89
2018-02-25T05:28:06.605Z,60.52
2018-02-25T05:29:06.487Z,60.52
2018-02-25T05:30:59.760Z,61.08
2018-02-25T05:31:59.669Z,60.71
2018-02-25T05:33:52.919Z,60.33
2018-02-25T05:34:52.830Z,60.33
2018-02-25T05:36:46.060Z,60.42
2018-02-25T05:37:45.979Z,60.61
2018-02-25T05:39:39.248Z,60.99
2018-02-25T05:40:39.138Z,60.89
2018-02-25T05:42:32.378Z,61.08
2018-02-25T05:43:32.295Z,60.99
2018-02-25T05:45:25.557Z,60.89
2018-02-25T05:46:25.460Z,61.18
2018-02-25T05:48:18.703Z,62.03
2018-02-25T05:49:18.629Z,61.62
2018-02-25T05:51:11.873Z,62.56
2018-02-25T05:52:11.779Z,61.71
2018-02-25T05:54:05.028Z,62.47
2018-02-25T05:55:04.937Z,63.03
2018-02-25T05:56:58.214Z,63.03
2018-02-25T05:57:58.084Z,62.65
2018-02-25T05:59:51.332Z,63.60
2018-02-25T06:00:51.248Z,63.79
2018-02-25T06:02:44.524Z,64.73
2018-02-25T06:03:44.404Z,64.73
2018-02-25T06:05:37.638Z,64.16
2018-02-25T06:06:37.567Z,64.54
2018-02-25T06:08:30.834Z,64.35
2018-02-25T06:09:30.720Z,64.83
2018-02-25T06:11:23.964Z,64.83
2018-02-25T06:12:23.892Z,64.83
2018-02-25T06:14:17.149Z,64.64
2018-02-25T06:15:17.085Z,64.35
2018-02-25T06:17:10.301Z,64.83
2018-02-25T06:18:10.217Z,64.45
2018-02-25T06:20:03.472Z,64.54
2018-02-25T06:21:03.369Z,63.98
2018-02-25T06:22:57.601Z,63.98
2018-02-25T06:23:57.522Z,63.60
2018-02-25T06:25:50.805Z,63.69
2018-02-25T06:26:50.684Z,63.41
2018-02-25T06:28:43.927Z,63.79
2018-02-25T06:29:51.488Z,63.69
2018-02-25T06:31:37.102Z,64.16
2018-02-25T06:32:44.644Z,63.69
2018-02-25T06:34:30.257Z,63.69
2018-02-25T06:35:30.157Z,63.79
2018-02-25T06:37:23.420Z,63.22
2018-02-25T06:38:23.337Z,63.32
2018-02-25T06:40:16.569Z,63.22
2018-02-25T06:41:16.496Z,63.03
2018-02-25T06:43:09.758Z,63.22
2018-02-25T06:44:09.656Z,63.60
2018-02-25T06:46:02.894Z,63.69
2018-02-25T06:47:02.816Z,63.41
2018-02-25T06:48:56.088Z,63.22
2018-02-25T06:49:55.979Z,63.50
2018-02-25T06:51:49.203Z,62.59
2018-02-25T06:52:49.164Z,62.31
2018-02-25T06:54:42.392Z,62.18
2018-02-25T06:55:42.292Z,62.12
2018-02-25T06:57:35.532Z,62.12
2018-02-25T06:58:35.464Z,62.31
2018-02-25T07:00:28.722Z,62.50
2018-02-25T07:01:28.621Z,62.40
2018-02-25T07:03:21.853Z,60.99
2018-02-25T07:04:21.781Z,60.99
2018-02-25T07:06:15.041Z,60.42
2018-02-25T07:07:14.935Z,60.52
2018-02-25T07:09:08.174Z,60.33
2018-02-25T07:10:08.107Z,60.05
2018-02-25T07:12:01.365Z,59.04
2018-02-25T07:13:01.271Z,57.62
2018-02-25T07:14:54.512Z,55.77
2018-02-25T07:15:54.424Z,53.88
2018-02-25T07:17:47.699Z,51.81
2018-02-25T07:18:47.587Z,51.81
2018-02-25T07:20:40.835Z,51.05
2018-02-25T07:21:40.744Z,50.01
2018-02-25T07:23:34.006Z,50.98
2018-02-25T07:24:33.905Z,49.44
2018-02-25T07:26:27.141Z,48.60
2018-02-25T07:27:27.066Z,48.50
2018-02-25T07:29:20.338Z,48.24
2018-02-25T07:30:20.252Z,47.49
2018-02-25T07:32:13.479Z,46.26
2018-02-25T07:33:13.402Z,45.88
2018-02-25T07:35:06.674Z,45.60
2018-02-25T07:36:06.590Z,45.69
2018-02-25T07:37:59.829Z,44.96
2018-02-25T07:38:59.742Z,43.54
2018-02-25T07:40:53.009Z,42.62
2018-02-25T07:41:52.921Z,41.20
2018-02-25T07:43:46.146Z,40.73
2018-02-25T07:44:46.101Z,39.90
2018-02-25T07:46:39.353Z,38.79
2018-02-25T07:47:39.263Z,37.54
2018-02-25T07:49:32.514Z,38.28
2018-02-25T07:50:32.432Z,38.95
2018-02-25T07:52:25.722Z,38.67
2018-02-25T07:53:25.621Z,37.92
2018-02-25T07:55:18.847Z,37.63
2018-02-25T07:56:18.775Z,37.92
2018-02-25T07:58:12.065Z,36.85
2018-02-25T07:59:11.960Z,37.33
2018-02-25T08:01:05.248Z,37.82
2018-02-25T08:02:05.154Z,37.52
2018-02-25T08:03:58.414Z,38.63
2018-02-25T08:04:58.333Z,39.59
2018-02-25T08:06:51.576Z,38.84
2018-02-25T08:07:51.507Z,38.60
2018-02-25T08:09:44.785Z,36.25
2018-02-25T08:10:44.693Z,34.89
2018-02-25T08:12:37.923Z,36.47
2018-02-25T08:13:37.911Z,37.52
2018-02-25T08:15:31.169Z,38.20
2018-02-25T08:16:31.054Z,37.37
2018-02-25T08:18:24.291Z,36.85
2018-02-25T08:19:24.223Z,37.67
2018-02-25T08:21:17.526Z,42.93
2018-02-25T08:22:17.428Z,45.55
2018-02-25T08:24:10.679Z,48.50
2018-02-25T08:25:10.613Z,47.77
2018-02-25T08:27:04.898Z,42.81
2018-02-25T08:28:04.830Z,40.35
2018-02-25T08:29:58.038Z,37.92
2018-02-25T08:30:57.978Z,37.16
2018-02-25T08:32:51.240Z,36.23
2018-02-25T08:33:51.140Z,35.47
2018-02-25T08:35:44.403Z,35.46
2018-02-25T08:36:44.365Z,35.55
2018-02-25T08:38:37.603Z,36.04
2018-02-25T08:39:37.538Z,35.49
2018-02-25T08:41:30.765Z,33.98
2018-02-25T08:42:30.691Z,33.28
2018-02-25T08:44:23.960Z,33.87
2018-02-25T08:45:23.869Z,33.03
2018-02-25T08:47:17.138Z,32.64
2018-02-25T08:48:17.070Z,33.18
2018-02-25T08:50:10.363Z,34.45
2018-02-25T08:51:10.260Z,33.43
2018-02-25T08:53:03.496Z,32.46
2018-02-25T08:54:03.443Z,31.88
2018-02-25T08:55:56.735Z,32.90
2018-02-25T08:56:56.622Z,34.89
2018-02-25T08:58:49.888Z,34.81
2018-02-25T08:59:49.836Z,34.15
2018-02-25T09:01:43.208Z,34.13
2018-02-25T09:02:43.172Z,34.42
2018-02-25T09:04:36.340Z,35.27
2018-02-25T09:05:36.278Z,36.02
2018-02-25T09:07:30.635Z,35.17
2018-02-25T09:08:30.477Z,34.99
2018-02-25T09:10:23.739Z,36.12
2018-02-25T09:11:23.681Z,35.00
2018-02-25T09:13:17.056Z,34.11
2018-02-25T09:14:16.922Z,32.02
2018-02-25T09:16:10.191Z,30.69
2018-02-25T09:17:10.149Z,30.69
2018-02-25T09:19:04.442Z,30.32
2018-02-25T09:20:04.310Z,29.53
2018-02-25T09:21:57.597Z,31.06
2018-02-25T09:22:57.491Z,30.58
2018-02-25T09:24:50.888Z,30.30
2018-02-25T09:25:50.780Z,29.37
2018-02-25T09:27:44.099Z,29.15
2018-02-25T09:28:43.924Z,29.72
2018-02-25T09:30:39.345Z,30.11
2018-02-25T09:31:39.126Z,30.03
2018-02-25T09:33:32.362Z,27.57
2018-02-25T09:34:32.350Z,26.81
2018-02-25T09:36:26.615Z,27.65
2018-02-25T09:37:26.588Z,27.75
2018-02-25T09:39:19.857Z,28.80
2018-02-25T09:40:19.736Z,27.85
2018-02-25T09:42:13.296Z,27.09
2018-02-25T09:43:13.298Z,27.00
2018-02-25T09:45:06.208Z,26.15
2018-02-25T09:46:06.176Z,27.09
2018-02-25T09:48:00.603Z,26.23
2018-02-25T09:49:00.522Z,26.98
2018-02-25T09:50:53.808Z,27.08
2018-02-25T09:51:53.607Z,26.98
2018-02-25T09:53:47.874Z,26.81
2018-02-25T09:54:47.798Z,26.43
2018-02-25T09:56:42.117Z,26.92
2018-02-25T09:57:41.984Z,27.22
2018-02-25T09:59:35.544Z,25.32
2018-02-25T10:00:35.254Z,24.63
2018-02-25T10:02:28.495Z,27.01
2018-02-25T10:03:28.405Z,26.35
2018-02-25T10:05:21.787Z,26.16
2018-02-25T10:06:21.627Z,25.21
2018-02-25T10:08:14.913Z,25.29
2018-02-25T10:09:14.824Z,24.91
2018-02-25T10:11:09.251Z,24.71
2018-02-25T10:12:09.345Z,24.42
2018-02-25T10:14:02.495Z,24.61
2018-02-25T10:15:02.394Z,23.66
2018-02-25T10:16:55.852Z,24.61
2018-02-25T10:17:55.590Z,24.80
2018-02-25T10:19:49.878Z,26.15
2018-02-25T10:20:49.785Z,25.57
2018-02-25T10:22:43.181Z,27.01
2018-02-25T10:23:43.153Z,25.78
2018-02-25T10:25:37.112Z,24.93
2018-02-25T10:26:36.489Z,24.55
2018-02-25T10:28:29.608Z,24.01
2018-02-25T10:29:29.516Z,22.85
2018-02-25T10:31:23.978Z,23.98
2018-02-25T10:32:23.706Z,25.23
2018-02-25T10:34:16.996Z,25.13
2018-02-25T10:35:17.008Z,24.67
2018-02-25T10:37:10.281Z,24.01
2018-02-25T10:38:10.104Z,23.24
2018-02-25T10:40:03.404Z,22.28
2018-02-25T10:41:03.285Z,23.43
2018-02-25T10:42:56.695Z,24.74
2018-02-25T10:43:56.496Z,25.32
2018-02-25T10:45:50.022Z,25.59
2018-02-25T10:46:49.723Z,25.79
2018-02-25T10:48:42.980Z,24.52
2018-02-25T10:49:42.927Z,25.18
2018-02-25T10:51:36.362Z,26.61
2018-02-25T10:52:36.159Z,26.14
2018-02-25T10:54:30.447Z,25.01
2018-02-25T10:55:30.245Z,24.44
2018-02-25T10:57:24.705Z,23.67
2018-02-25T10:58:24.478Z,23.96
2018-02-25T11:00:18.910Z,23.77
2018-02-25T11:01:18.955Z,24.91
2018-02-25T11:03:12.046Z,25.10
2018-02-25T11:04:12.026Z,25.98
2018-02-25T11:06:05.307Z,23.88
2018-02-25T11:07:05.121Z,22.56
2018-02-25T11:08:58.431Z,22.74
2018-02-25T11:09:58.335Z,22.64
2018-02-25T11:11:51.869Z,25.20
2018-02-25T11:12:51.598Z,25.78
2018-02-25T11:14:45.028Z,25.02
2018-02-25T11:15:44.752Z,25.20
2018-02-25T11:17:39.319Z,24.65
2018-02-25T11:18:47.775Z,25.49
2018-02-25T11:20:32.348Z,25.99
2018-02-25T11:21:32.225Z,25.05
2018-02-25T11:23:25.499Z,24.86
2018-02-25T11:24:25.502Z,23.73
2018-02-25T11:26:19.306Z,23.80
2018-02-25T11:27:19.106Z,25.32
2018-02-25T11:29:12.381Z,24.66
2018-02-25T11:30:12.316Z,25.42
2018-02-25T11:32:05.683Z,22.56
2018-02-25T11:33:05.534Z,23.41
2018-02-25T11:34:58.858Z,23.80
2018-02-25T11:35:58.730Z,24.37
2018-02-25T11:37:52.071Z,24.19
2018-02-25T11:38:52.066Z,24.01
2018-02-25T11:40:46.313Z,25.43
2018-02-25T11:41:46.225Z,25.06
2018-02-25T11:43:39.477Z,23.63
2018-02-25T11:44:39.390Z,24.67
2018-02-25T11:46:33.775Z,23.88
2018-02-25T11:47:33.606Z,24.63
2018-02-25T11:49:27.929Z,26.04
2018-02-25T11:50:27.845Z,27.19
2018-02-25T11:52:21.124Z,27.30
2018-02-25T11:53:21.035Z,27.78
2018-02-25T11:55:14.384Z,27.01
2018-02-25T11:56:14.265Z,26.45
2018-02-25T11:58:07.566Z,24.46
2018-02-25T11:59:07.476Z,23.97
2018-02-25T12:01:00.864Z,26.53
2018-02-25T12:02:00.694Z,27.58
2018-02-25T12:03:54.100Z,28.17
2018-02-25T12:04:53.877Z,28.17
2018-02-25T12:06:47.180Z,27.12
2018-02-25T12:07:47.091Z,28.18
2018-02-25T12:09:40.421Z,27.40
2018-02-25T12:10:40.310Z,26.73
2018-02-25T12:12:33.634Z,27.39
2018-02-25T12:13:33.537Z,27.77
2018-02-25T12:15:26.809Z,28.33
2018-02-25T12:16:26.725Z,28.52
2018-02-25T12:18:20.128Z,28.80
2018-02-25T12:19:19.976Z,28.41
2018-02-25T12:21:13.230Z,30.51
2018-02-25T12:22:13.171Z,30.41
2018-02-25T12:24:06.465Z,29.76
2018-02-25T12:25:06.368Z,28.92
2018-02-25T12:26:59.654Z,28.17
2018-02-25T12:27:59.628Z,27.59
2018-02-25T12:29:52.896Z,26.93
2018-02-25T12:30:52.792Z,27.03
2018-02-25T12:32:46.046Z,27.12
2018-02-25T12:33:46.055Z,26.17
2018-02-25T12:35:39.334Z,27.00
2018-02-25T12:36:39.222Z,27.66
2018-02-25T12:38:32.643Z,30.13
2018-02-25T12:39:32.427Z,30.43
2018-02-25T12:41:25.690Z,28.15
2018-02-25T12:42:25.614Z,28.33
2018-02-25T12:44:18.929Z,29.10
2018-02-25T12:45:18.857Z,29.19
2018-02-25T12:47:12.145Z,27.59
2018-02-25T12:48:12.059Z,27.12
2018-02-25T12:50:05.359Z,27.39
2018-02-25T12:51:05.263Z,29.21
2018-02-25T12:52:58.589Z,27.20
2018-02-25T12:53:58.446Z,27.30
2018-02-25T12:55:51.720Z,27.20
2018-02-25T12:56:51.678Z,26.35
2018-02-25T12:58:44.970Z,26.05
2018-02-25T12:59:44.891Z,26.59
2018-02-25T13:01:38.211Z,28.09
2018-02-25T13:02:38.096Z,28.96
2018-02-25T13:04:31.425Z,30.32
2018-02-25T13:05:31.316Z,29.84
2018-02-25T13:07:24.569Z,28.52
2018-02-25T13:08:24.513Z,28.31
2018-02-25T13:10:17.834Z,29.56
2018-02-25T13:11:17.754Z,29.37
2018-02-25T13:13:10.949Z,27.27
2018-02-25T13:14:10.934Z,27.17
2018-02-25T13:16:04.182Z,28.50
2018-02-25T13:17:04.109Z,28.99
2018-02-25T13:18:57.357Z,26.98
2018-02-25T13:19:57.385Z,26.42
2018-02-25T13:21:50.691Z,27.91
2018-02-25T13:22:50.762Z,28.95
2018-02-25T13:24:44.849Z,30.74
2018-02-25T13:25:44.772Z,29.71
2018-02-25T13:27:38.061Z,29.52
2018-02-25T13:28:38.008Z,30.08
2018-02-25T13:30:31.217Z,30.36
2018-02-25T13:31:31.246Z,29.71
2018-02-25T13:33:24.495Z,31.88
2018-02-25T13:34:24.402Z,30.65
2018-02-25T13:36:17.618Z,29.33
2018-02-25T13:37:17.568Z,29.14
2018-02-25T13:39:10.895Z,29.61
2018-02-25T13:40:10.758Z,29.23
2018-02-25T13:42:04.021Z,28.95
2018-02-25T13:43:03.987Z,28.76
2018-02-25T13:44:58.231Z,29.23
2018-02-25T13:45:58.118Z,29.23
2018-02-25T13:47:51.441Z,29.12
2018-02-25T13:48:51.396Z,29.12
2018-02-25T13:50:45.768Z,30.44
2018-02-25T13:51:45.563Z,30.46
2018-02-25T13:53:39.796Z,29.69
2018-02-25T13:54:39.742Z,30.44
2018-02-25T13:56:33.976Z,30.84
2018-02-25T13:57:33.861Z,30.74
2018-02-25T13:59:27.129Z,29.31
2018-02-25T14:00:27.068Z,29.22
2018-02-25T14:02:20.382Z,29.31
2018-02-25T14:03:20.216Z,30.16
2018-02-25T14:05:14.534Z,30.73
2018-02-25T14:06:14.453Z,31.10
2018-02-25T14:08:07.843Z,30.82
2018-02-25T14:09:07.710Z,30.91
2018-02-25T14:11:00.838Z,30.54
2018-02-25T14:12:00.809Z,31.01
2018-02-25T14:13:54.088Z,31.48
2018-02-25T14:14:53.986Z,31.77
2018-02-25T14:16:47.325Z,33.18
2018-02-25T14:17:47.177Z,32.34
2018-02-25T14:19:40.444Z,32.34
2018-02-25T14:20:40.342Z,32.90
2018-02-25T14:22:33.656Z,33.36
2018-02-25T14:23:33.572Z,33.36
2018-02-25T14:25:27.989Z,32.89
2018-02-25T14:26:27.747Z,33.45
2018-02-25T14:28:21.014Z,34.23
2018-02-25T14:29:20.956Z,34.30
2018-02-25T14:31:14.316Z,34.11
2018-02-25T14:32:14.127Z,34.11
2018-02-25T14:34:08.353Z,33.54
2018-02-25T14:35:08.271Z,34.02
2018-02-25T14:37:02.534Z,34.49
2018-02-25T14:38:02.434Z,34.59
2018-02-25T14:39:55.872Z,33.83
2018-02-25T14:40:55.617Z,34.02
2018-02-25T14:42:48.894Z,33.83
2018-02-25T14:43:48.858Z,34.02
2018-02-25T14:45:42.189Z,34.40
2018-02-25T14:46:42.063Z,34.49
2018-02-25T14:48:35.936Z,34.11
2018-02-25T14:49:35.193Z,33.83
2018-02-25T14:51:28.438Z,34.11
2018-02-25T14:52:28.355Z,35.44
2018-02-25T14:54:21.629Z,34.97
2018-02-25T14:55:21.631Z,34.40
2018-02-25T14:57:14.821Z,34.68
2018-02-25T14:58:14.804Z,34.49
2018-02-25T15:00:08.007Z,34.38
2018-02-25T15:01:07.902Z,34.49
2018-02-25T15:03:01.158Z,34.95
2018-02-25T15:04:01.101Z,35.04
2018-02-25T15:05:54.440Z,34.47
2018-02-25T15:06:54.257Z,33.72
2018-02-25T15:08:48.679Z,33.44
2018-02-25T15:09:48.429Z,33.15
2018-02-25T15:11:41.831Z,33.62
2018-02-25T15:12:41.642Z,33.72
2018-02-25T15:14:34.896Z,34.38
2018-02-25T15:15:34.819Z,34.28
2018-02-25T15:17:28.052Z,34.47
2018-02-25T15:18:27.987Z,34.00
2018-02-25T15:20:22.242Z,34.00
2018-02-25T15:21:22.212Z,33.44
2018-02-25T15:23:15.410Z,32.68
2018-02-25T15:24:15.327Z,32.97
2018-02-25T15:26:08.591Z,33.25
2018-02-25T15:27:08.510Z,33.72
2018-02-25T15:29:01.810Z,33.91
2018-02-25T15:30:01.667Z,33.91
2018-02-25T15:31:54.956Z,33.91
2018-02-25T15:32:54.829Z,34.00
2018-02-25T15:34:48.164Z,33.72
2018-02-25T15:35:48.034Z,33.62
2018-02-25T15:37:41.364Z,33.72
2018-02-25T15:38:41.244Z,33.25
2018-02-25T15:40:34.576Z,33.15
2018-02-25T15:41:34.373Z,33.44
2018-02-25T15:43:27.700Z,34.57
2018-02-25T15:44:27.525Z,34.38
2018-02-25T15:46:20.905Z,33.72
2018-02-25T15:47:20.733Z,33.34
2018-02-25T15:49:14.072Z,33.06
2018-02-25T15:50:13.902Z,33.06
2018-02-25T15:52:07.343Z,33.53
2018-02-25T15:53:07.074Z,34.10
2018-02-25T15:55:00.524Z,34.28
2018-02-25T15:56:00.457Z,34.00
2018-02-25T15:57:53.780Z,34.00
2018-02-25T15:58:53.630Z,34.00
2018-02-25T16:00:46.892Z,32.87
2018-02-25T16:01:46.803Z,32.59
2018-02-25T16:03:40.083Z,33.06
2018-02-25T16:04:39.946Z,32.87
2018-02-25T16:06:34.249Z,32.68
2018-02-25T16:07:34.130Z,33.15
2018-02-25T16:09:27.444Z,32.68
2018-02-25T16:10:27.336Z,32.87
2018-02-25T16:12:20.673Z,33.14
2018-02-25T16:13:20.496Z,33.23
2018-02-25T16:15:13.786Z,34.08
2018-02-25T16:16:13.661Z,34.17
2018-02-25T16:18:07.935Z,33.80
2018-02-25T16:19:07.792Z,33.98
2018-02-25T16:21:01.151Z,33.80
2018-02-25T16:22:01.016Z,33.89
2018-02-25T16:23:54.265Z,33.70
2018-02-25T16:24:54.227Z,34.08
2018-02-25T16:26:48.492Z,34.46
2018-02-25T16:27:48.395Z,34.46
2018-02-25T16:29:41.634Z,33.98
2018-02-25T16:30:41.526Z,33.89
2018-02-25T16:32:34.823Z,33.42
2018-02-25T16:33:34.716Z,33.89
2018-02-25T16:35:28.913Z,33.98
2018-02-25T16:36:28.867Z,33.89
2018-02-25T16:38:22.144Z,33.98
2018-02-25T16:39:22.028Z,33.23
2018-02-25T16:41:15.333Z,32.95
2018-02-25T16:42:15.207Z,33.70
2018-02-25T16:44:08.579Z,33.80
2018-02-25T16:45:08.379Z,33.42
2018-02-25T16:47:01.619Z,34.27
2018-02-25T16:48:01.573Z,34.46
2018-02-25T16:49:54.922Z,34.46
2018-02-25T16:50:54.747Z,34.36
2018-02-25T16:52:48.018Z,34.74
2018-02-25T16:53:47.901Z,34.46
2018-02-25T16:55:42.180Z,33.89
2018-02-25T16:56:42.098Z,33.61
2018-02-25T16:58:35.333Z,33.98
2018-02-25T16:59:35.272Z,33.98
2018-02-25T17:01:28.581Z,34.08
2018-02-25T17:02:28.443Z,34.27
2018-02-25T17:04:21.656Z,33.70
2018-02-25T17:05:21.613Z,33.98
2018-02-25T17:07:14.870Z,34.08
2018-02-25T17:08:14.761Z,34.08
2018-02-25T17:10:08.008Z,35.02
2018-02-25T17:11:07.931Z,35.40
2018-02-25T17:13:01.241Z,34.74
2018-02-25T17:14:01.151Z,34.27
2018-02-25T17:15:54.387Z,34.08
2018-02-25T17:16:54.288Z,33.70
2018-02-25T17:18:47.530Z,33.89
2018-02-25T17:19:47.415Z,33.80
2018-02-25T17:21:40.671Z,35.10
2018-02-25T17:22:40.613Z,36.05
2018-02-25T17:24:33.903Z,35.48
2018-02-25T17:25:33.775Z,35.38
2018-02-25T17:27:27.001Z,35.48
2018-02-25T17:28:26.947Z,35.48
2018-02-25T17:30:20.217Z,35.48
2018-02-25T17:31:20.116Z,34.82
2018-02-25T17:33:13.371Z,34.25
2018-02-25T17:34:13.312Z,34.82
2018-02-25T17:36:06.560Z,34.72
2018-02-25T17:37:06.455Z,34.91
2018-02-25T17:38:59.721Z,35.76
2018-02-25T17:39:59.691Z,35.38
2018-02-25T17:41:52.925Z,35.86
2018-02-25T17:42:52.830Z,35.29
2018-02-25T17:44:46.034Z,35.95
2018-02-25T17:45:45.987Z,36.14
2018-02-25T17:47:39.268Z,36.33
2018-02-25T17:48:39.136Z,36.14
2018-02-25T17:50:33.382Z,36.42
2018-02-25T17:51:33.329Z,36.14
2018-02-25T17:53:27.616Z,36.99
2018-02-25T17:54:27.549Z,37.46
2018-02-25T17:56:21.826Z,38.78
2018-02-25T17:57:21.713Z,38.67
2018-02-25T17:59:14.911Z,39.32
2018-02-25T18:00:14.849Z,39.23
2018-02-25T18:02:09.041Z,40.84
2018-02-25T18:03:08.996Z,41.50
2018-02-25T18:05:03.265Z,44.42
2018-02-25T18:06:03.186Z,46.31
2018-02-25T18:07:57.410Z,47.81
2018-02-25T18:08:57.291Z,49.40
2018-02-25T18:10:50.628Z,51.18
2018-02-25T18:11:50.545Z,51.94
2018-02-25T18:13:43.749Z,52.13
2018-02-25T18:14:43.682Z,52.79
2018-02-25T18:16:37.970Z,54.02
2018-02-25T18:17:37.863Z,54.02
2018-02-25T18:19:31.104Z,54.02
2018-02-25T18:20:31.042Z,55.99
2018-02-25T18:22:24.304Z,55.52
2018-02-25T18:23:24.216Z,55.90
2018-02-25T18:25:18.504Z,55.52
2018-02-25T18:26:18.369Z,55.62
2018-02-25T18:28:11.620Z,56.75
2018-02-25T18:29:11.548Z,56.18
2018-02-25T18:31:04.943Z,57.88
2018-02-25T18:32:04.721Z,57.41
2018-02-25T18:33:58.955Z,58.26
2018-02-25T18:34:58.969Z,59.11